createdAt,value
2023-03-24T00:00:41.648Z,15.89
2023-03-24T00:03:32.327Z,15.95
2023-03-24T00:06:14.019Z,15.90
2023-03-24T00:08:50.025Z,15.97
2023-03-24T00:11:21.560Z,15.92
2023-03-24T00:14:31.667Z,15.90
2023-03-24T00:17:07.934Z,15.90
2023-03-24T00:19:39.054Z,15.84
2023-03-24T00:22:14.610Z,15.87
2023-03-24T00:24:52.707Z,15.81
2023-03-24T00:27:23.247Z,15.89
2023-03-24T00:29:50.466Z,15.97
2023-03-24T00:32:21.678Z,16.07
2023-03-24T00:34:49.798Z,16.07
2023-03-24T00:37:16.998Z,15.90
2023-03-24T00:40:10.539Z,16.00
2023-03-24T00:42:37.437Z,15.93
2023-03-24T00:45:16.046Z,15.90
2023-03-24T00:47:51.874Z,15.75
2023-03-24T00:50:20.870Z,15.79
2023-03-24T00:52:49.488Z,15.82
2023-03-24T00:55:48.015Z,15.84
2023-03-24T00:58:18.485Z,15.67
2023-03-24T01:07:14.642Z,15.59
2023-03-24T01:10:05.586Z,15.37
2023-03-24T01:12:40.164Z,15.49
2023-03-24T01:15:13.449Z,15.64
2023-03-24T01:17:41.946Z,15.72
2023-03-24T01:20:33.641Z,15.65
2023-03-24T01:23:40.412Z,15.56
2023-03-24T01:26:10.939Z,15.64
2023-03-24T01:28:57.182Z,15.88
2023-03-24T01:31:36.114Z,15.89
2023-03-24T01:34:12.467Z,15.89
2023-03-24T01:36:41.828Z,15.84
2023-03-24T01:39:09.132Z,15.79
2023-03-24T01:41:42.967Z,15.71
2023-03-24T01:44:27.582Z,15.62
2023-03-24T01:47:09.260Z,15.77
2023-03-24T01:50:15.381Z,15.75
2023-03-24T01:52:52.025Z,15.69
2023-03-24T01:55:22.962Z,15.63
2023-03-24T01:57:58.311Z,15.51
2023-03-24T02:00:25.782Z,15.53
2023-03-24T02:02:58.948Z,15.58
2023-03-24T02:05:38.560Z,15.67
2023-03-24T02:08:34.706Z,15.55
2023-03-24T02:11:02.356Z,15.57
2023-03-24T02:13:41.416Z,15.67
2023-03-24T02:16:51.347Z,15.63
2023-03-24T02:23:23.280Z,15.47
2023-03-24T02:26:39.785Z,15.50
2023-03-24T02:29:18.987Z,15.56
2023-03-24T02:32:04.715Z,15.64
2023-03-24T02:34:46.747Z,15.73
2023-03-24T02:44:05.498Z,15.40
2023-03-24T02:46:57.984Z,15.34
2023-03-24T02:49:52.592Z,15.47
2023-03-24T02:52:41.327Z,15.39
2023-03-24T02:55:26.333Z,15.22
2023-03-24T02:58:03.652Z,15.26
2023-03-24T03:00:33.504Z,15.12
2023-03-24T03:03:17.485Z,14.87
2023-03-24T03:06:08.483Z,15.02
2023-03-24T03:08:39.164Z,15.12
2023-03-24T03:11:14.541Z,15.05
2023-03-24T03:13:48.901Z,14.96
2023-03-24T03:16:34.771Z,15.01
2023-03-24T03:19:11.251Z,15.07
2023-03-24T03:21:43.209Z,15.29
2023-03-24T03:24:27.841Z,15.26
2023-03-24T03:27:03.140Z,15.07
2023-03-24T03:29:40.394Z,15.10
2023-03-24T03:32:12.900Z,15.12
2023-03-24T03:35:29.451Z,15.16
2023-03-24T03:38:18.652Z,15.24
2023-03-24T03:40:59.702Z,15.24
2023-03-24T03:43:28.447Z,15.20
2023-03-24T03:46:03.600Z,15.20
2023-03-24T03:48:49.762Z,15.12
2023-03-24T03:51:16.649Z,15.29
2023-03-24T03:53:58.467Z,15.36
2023-03-24T03:56:32.198Z,15.44
2023-03-24T03:59:06.944Z,15.50
2023-03-24T04:01:48.892Z,15.35
2023-03-24T04:05:05.218Z,15.40
2023-03-24T04:08:42.144Z,15.34
2023-03-24T04:11:53.433Z,15.39
2023-03-24T04:15:04.016Z,15.47
2023-03-24T04:20:51.218Z,15.50
2023-03-24T04:26:30.920Z,15.42
2023-03-24T04:29:12.964Z,15.54
2023-03-24T04:31:45.346Z,15.43
2023-03-24T04:34:13.167Z,15.25
2023-03-24T04:39:41.067Z,15.24
2023-03-24T04:42:18.003Z,15.24
2023-03-24T04:44:46.465Z,15.15
2023-03-24T04:47:17.160Z,15.16
2023-03-24T04:50:13.903Z,15.30
2023-03-24T04:52:43.773Z,15.24
2023-03-24T04:55:40.460Z,15.24
2023-03-24T04:58:07.336Z,15.19
2023-03-24T05:03:40.726Z,15.07
2023-03-24T05:06:08.187Z,15.06
2023-03-24T05:08:35.062Z,14.97
2023-03-24T05:11:05.207Z,15.01
2023-03-24T05:13:32.131Z,15.10
2023-03-24T05:16:01.912Z,14.94
2023-03-24T05:18:31.820Z,15.10
2023-03-24T05:21:00.256Z,15.19
2023-03-24T05:23:27.147Z,15.22
2023-03-24T05:25:54.102Z,15.22
2023-03-24T05:28:36.232Z,15.17
2023-03-24T05:31:06.157Z,15.33
2023-03-24T05:33:39.325Z,15.37
2023-03-24T05:36:41.707Z,15.40
2023-03-24T05:39:08.528Z,15.51
2023-03-24T05:41:35.759Z,15.45
2023-03-24T05:44:06.362Z,15.55
2023-03-24T05:46:33.367Z,15.50
2023-03-24T05:49:19.549Z,15.58
2023-03-24T05:52:19.199Z,15.59
2023-03-24T05:54:46.504Z,15.61
2023-03-24T05:57:20.794Z,15.41
2023-03-24T05:59:48.149Z,15.51
2023-03-24T06:02:15.329Z,15.54
2023-03-24T06:04:49.661Z,15.47
2023-03-24T06:07:16.901Z,15.60
2023-03-24T06:09:47.365Z,15.52
2023-03-24T06:12:31.756Z,15.58
2023-03-24T06:15:09.320Z,15.53
2023-03-24T06:17:44.610Z,15.60
2023-03-24T06:20:16.244Z,15.75
2023-03-24T06:22:59.409Z,15.53
2023-03-24T06:25:30.292Z,15.53
2023-03-24T06:28:15.424Z,15.51
2023-03-24T06:30:45.028Z,15.51
2023-03-24T06:33:23.896Z,15.47
2023-03-24T06:36:02.022Z,15.52
2023-03-24T06:38:28.911Z,15.49
2023-03-24T06:41:00.882Z,15.52
2023-03-24T06:43:27.800Z,15.53
2023-03-24T06:45:54.636Z,15.66
2023-03-24T06:48:27.955Z,15.67
2023-03-24T06:51:24.687Z,15.60
2023-03-24T06:53:52.706Z,15.56
2023-03-24T06:56:21.313Z,15.56
2023-03-24T06:58:49.723Z,15.87
2023-03-24T07:06:58.568Z,15.85
2023-03-24T07:09:40.691Z,15.79
2023-03-24T07:12:13.363Z,15.89
2023-03-24T07:14:41.299Z,15.84
2023-03-24T07:17:08.260Z,15.90
2023-03-24T07:20:05.033Z,15.98
2023-03-24T07:25:26.593Z,16.10
2023-03-24T07:28:02.102Z,16.19
2023-03-24T07:30:39.870Z,16.23
2023-03-24T07:33:33.812Z,16.29
2023-03-24T07:36:07.322Z,16.37
2023-03-24T07:38:47.844Z,16.36
2023-03-24T07:42:15.186Z,16.37
2023-03-24T07:44:27.861Z,16.41
2023-03-24T07:46:57.382Z,16.61
2023-03-24T07:49:41.066Z,16.69
2023-03-24T07:52:23.999Z,16.68
2023-03-24T07:55:00.342Z,16.78
2023-03-24T07:57:32.774Z,16.86
2023-03-24T08:00:02.120Z,16.92
2023-03-24T08:02:29.445Z,17.03
2023-03-24T08:05:03.748Z,16.89
2023-03-24T08:07:32.030Z,16.97
2023-03-24T08:10:00.149Z,17.03
2023-03-24T08:15:14.479Z,17.01
2023-03-24T08:17:57.035Z,17.12
2023-03-24T08:20:30.680Z,17.37
2023-03-24T08:22:57.509Z,17.28
2023-03-24T08:28:14.957Z,17.49
2023-03-24T08:30:49.627Z,17.37
2023-03-24T08:33:35.184Z,17.36
2023-03-24T08:36:12.470Z,17.49
2023-03-24T08:39:09.725Z,17.59
2023-03-24T08:41:50.389Z,17.55
2023-03-24T08:44:17.671Z,17.51
2023-03-24T08:47:03.594Z,17.59
2023-03-24T08:49:37.332Z,17.73
2023-03-24T08:52:26.408Z,18.00
2023-03-24T08:55:41.877Z,17.98
2023-03-24T08:58:13.284Z,17.71
2023-03-24T09:00:41.203Z,17.76
2023-03-24T09:03:22.910Z,17.67
2023-03-24T09:05:51.421Z,17.97
2023-03-24T09:08:22.277Z,17.92
2023-03-24T09:10:51.685Z,17.80
2023-03-24T09:13:22.040Z,17.84
2023-03-24T09:15:55.058Z,17.96
2023-03-24T09:18:22.432Z,18.16
2023-03-24T09:20:50.068Z,18.47
2023-03-24T09:26:25.771Z,18.46
2023-03-24T09:28:52.577Z,18.69
2023-03-24T09:31:22.492Z,18.89
2023-03-24T09:33:55.486Z,18.56
2023-03-24T09:36:25.718Z,18.33
2023-03-24T09:38:52.574Z,18.52
2023-03-24T09:41:26.988Z,18.36
2023-03-24T09:44:09.778Z,18.48
2023-03-24T09:46:46.560Z,18.30
2023-03-24T09:49:17.817Z,18.22
2023-03-24T09:51:46.626Z,17.97
2023-03-24T09:54:31.668Z,17.92
2023-03-24T09:57:02.510Z,17.78
2023-03-24T09:59:40.357Z,17.98
2023-03-24T10:02:21.559Z,18.02
2023-03-24T10:04:58.131Z,17.90
2023-03-24T10:07:38.551Z,17.95
2023-03-24T10:10:31.015Z,17.89
2023-03-24T10:13:18.858Z,17.94
2023-03-24T10:16:05.826Z,17.96
2023-03-24T10:19:11.484Z,17.88
2023-03-24T10:21:56.045Z,17.96
2023-03-24T10:25:00.750Z,17.94
2023-03-24T10:28:34.500Z,17.80
2023-03-24T10:31:07.866Z,17.89
2023-03-24T10:33:44.151Z,17.90
2023-03-24T10:36:20.288Z,18.31
2023-03-24T10:38:57.466Z,18.19
2023-03-24T10:41:27.998Z,17.98
2023-03-24T10:43:57.508Z,18.05
2023-03-24T10:46:45.638Z,18.21
2023-03-24T10:49:25.811Z,18.13
2023-03-24T10:52:04.179Z,18.30
2023-03-24T10:54:34.918Z,18.30
2023-03-24T10:57:05.252Z,18.28
2023-03-24T11:00:03.081Z,17.96
2023-03-24T11:02:38.354Z,17.91
2023-03-24T11:05:20.412Z,18.16
2023-03-24T11:07:58.243Z,18.25
2023-03-24T11:10:44.817Z,18.45
2023-03-24T11:13:28.763Z,18.69
2023-03-24T11:16:19.791Z,18.72
2023-03-24T11:19:22.828Z,18.86
2023-03-24T11:21:53.116Z,18.89
2023-03-24T11:24:24.965Z,18.79
2023-03-24T11:27:05.244Z,19.14
2023-03-24T11:29:38.786Z,19.58
2023-03-24T11:32:14.068Z,19.65
2023-03-24T11:34:47.351Z,19.25
2023-03-24T11:37:22.716Z,18.97
2023-03-24T11:40:17.087Z,18.81
2023-03-24T11:42:51.954Z,18.94
2023-03-24T11:45:55.999Z,19.36
2023-03-24T11:48:58.399Z,19.57
2023-03-24T11:51:47.319Z,19.34
2023-03-24T11:54:25.745Z,19.37
2023-03-24T11:57:13.321Z,19.37
2023-03-24T12:00:00.653Z,19.40
2023-03-24T12:02:43.153Z,19.28
2023-03-24T12:06:11.190Z,19.36
2023-03-24T12:09:02.053Z,19.43
2023-03-24T12:11:50.698Z,19.13
2023-03-24T12:14:34.154Z,19.10
2023-03-24T12:17:21.105Z,19.85
2023-03-24T12:20:38.186Z,19.81
2023-03-24T12:23:34.938Z,19.45
2023-03-24T12:26:20.399Z,19.57
2023-03-24T12:29:14.878Z,19.31
2023-03-24T12:32:22.322Z,18.91
2023-03-24T12:35:11.774Z,18.85
2023-03-24T12:38:31.330Z,18.70
2023-03-24T12:41:21.183Z,18.80
2023-03-24T12:44:22.694Z,18.86
2023-03-24T12:47:18.970Z,18.73
2023-03-24T12:53:26.820Z,18.52
2023-03-24T12:55:59.681Z,18.67
2023-03-24T12:58:34.677Z,18.62
2023-03-24T13:01:22.185Z,18.33
2023-03-24T13:04:44.793Z,18.45
2023-03-24T13:07:44.143Z,18.28
2023-03-24T13:10:45.258Z,18.30
2023-03-24T13:13:29.543Z,18.28
2023-03-24T13:18:56.776Z,18.45
2023-03-24T13:24:42.804Z,18.55
2023-03-24T13:27:54.451Z,18.35
2023-03-24T13:33:42.119Z,18.78
2023-03-24T13:37:06.350Z,18.98
2023-03-24T13:39:43.808Z,18.66
2023-03-24T13:42:43.767Z,18.41
2023-03-24T13:45:58.989Z,18.25
2023-03-24T13:49:03.928Z,18.42
2023-03-24T13:54:45.027Z,18.72
2023-03-24T13:57:27.470Z,18.91
2023-03-24T14:00:22.623Z,18.80
2023-03-24T14:02:55.864Z,18.59
2023-03-24T14:05:22.816Z,18.38
2023-03-24T14:08:04.833Z,18.33
2023-03-24T14:10:54.448Z,18.34
2023-03-24T14:13:35.063Z,18.21
2023-03-24T14:16:35.640Z,18.18
2023-03-24T14:19:42.957Z,18.10
2023-03-24T14:25:05.311Z,18.21
2023-03-24T14:27:36.791Z,18.19
2023-03-24T14:30:32.307Z,18.31
2023-03-24T14:33:26.818Z,18.08
2023-03-24T14:36:15.043Z,18.13
2023-03-24T14:38:49.496Z,18.14
2023-03-24T14:45:00.043Z,18.19
2023-03-24T14:48:12.841Z,18.16
2023-03-24T14:50:53.127Z,18.20
2023-03-24T14:53:37.684Z,18.08
2023-03-24T14:56:18.016Z,18.02
2023-03-24T14:59:21.995Z,18.14
2023-03-24T15:02:29.586Z,18.17
2023-03-24T15:05:16.826Z,18.18
2023-03-24T15:08:08.082Z,18.25
2023-03-24T15:10:51.876Z,18.32
2023-03-24T15:14:00.236Z,18.22
2023-03-24T15:17:11.740Z,18.23
2023-03-24T15:19:44.757Z,18.20
2023-03-24T15:22:22.861Z,18.30
2023-03-24T15:25:15.222Z,18.99
2023-03-24T15:28:08.563Z,19.29
2023-03-24T15:30:44.937Z,19.18
2023-03-24T15:33:22.928Z,19.17
2023-03-24T15:36:04.113Z,19.06
2023-03-24T15:38:57.847Z,19.22
2023-03-24T15:41:55.794Z,19.44
2023-03-24T15:44:38.873Z,19.55
2023-03-24T15:47:18.405Z,19.71
2023-03-24T15:50:16.924Z,19.89
2023-03-24T15:52:43.755Z,20.08
2023-03-24T15:55:38.512Z,19.93
2023-03-24T15:58:50.356Z,19.54
2023-03-24T16:01:45.665Z,19.32
2023-03-24T16:05:07.758Z,19.40
2023-03-24T16:07:38.035Z,19.21
2023-03-24T16:10:27.692Z,19.32
2023-03-24T16:13:30.541Z,19.26
2023-03-24T16:16:32.767Z,19.11
2023-03-24T16:19:08.697Z,19.45
2023-03-24T16:21:51.124Z,19.19
2023-03-24T16:25:05.546Z,19.17
2023-03-24T16:27:44.864Z,19.12
2023-03-24T16:33:41.678Z,19.28
2023-03-24T16:36:11.963Z,19.29
2023-03-24T16:38:38.893Z,19.31
2023-03-24T16:44:07.130Z,19.09
2023-03-24T16:46:46.351Z,19.11
2023-03-24T16:49:17.050Z,19.05
2023-03-24T16:51:45.440Z,18.98
2023-03-24T16:54:13.647Z,18.97
2023-03-24T16:56:40.768Z,18.97
2023-03-24T16:59:12.812Z,18.88
2023-03-24T17:05:06.619Z,18.77
2023-03-24T17:07:46.541Z,18.59
2023-03-24T17:13:30.438Z,18.52
2023-03-24T17:16:24.941Z,18.66
2023-03-24T17:18:52.536Z,18.82
2023-03-24T17:21:43.207Z,18.71
2023-03-24T17:24:13.447Z,18.59
2023-03-24T17:26:43.398Z,18.58
2023-03-24T17:29:13.414Z,18.55
2023-03-24T17:32:02.780Z,18.50
2023-03-24T17:34:38.952Z,18.49
2023-03-24T17:37:09.001Z,18.53
2023-03-24T17:39:50.436Z,18.61
2023-03-24T17:42:22.447Z,18.48
2023-03-24T17:44:58.605Z,18.45
2023-03-24T17:47:26.735Z,18.32
2023-03-24T17:50:14.945Z,18.33
2023-03-24T17:52:47.359Z,18.24
2023-03-24T17:55:15.947Z,18.27
2023-03-24T17:57:49.865Z,18.34
2023-03-24T18:00:19.816Z,18.33
2023-03-24T18:02:55.350Z,18.30
2023-03-24T18:05:27.080Z,18.47
2023-03-24T18:08:08.397Z,18.38
2023-03-24T18:10:48.938Z,18.31
2023-03-24T18:13:17.705Z,18.29
2023-03-24T18:15:44.811Z,18.48
2023-03-24T18:18:12.608Z,18.46
2023-03-24T18:20:40.411Z,18.33
2023-03-24T18:23:08.594Z,18.39
2023-03-24T18:25:42.304Z,18.39
2023-03-24T18:28:16.622Z,18.35
2023-03-24T18:30:43.647Z,18.33
2023-03-24T18:33:23.163Z,18.21
2023-03-24T18:36:01.710Z,18.27
2023-03-24T18:38:36.201Z,18.33
2023-03-24T18:41:10.777Z,18.26
2023-03-24T18:43:51.311Z,18.16
2023-03-24T18:46:26.641Z,18.19
2023-03-24T18:48:59.907Z,18.24
2023-03-24T18:51:28.576Z,18.20
2023-03-24T18:54:09.272Z,18.08
2023-03-24T18:56:40.873Z,18.08
2023-03-24T18:59:12.052Z,18.32
2023-03-24T19:01:56.282Z,18.22
2023-03-24T19:04:31.335Z,18.32
2023-03-24T19:07:10.598Z,18.23
2023-03-24T19:12:40.534Z,18.16
2023-03-24T19:15:30.597Z,18.01
2023-03-24T19:17:59.230Z,18.03
2023-03-24T19:20:30.223Z,18.27
2023-03-24T19:22:57.261Z,18.24
2023-03-24T19:25:29.771Z,18.19
2023-03-24T19:27:57.364Z,18.08
2023-03-24T19:30:24.272Z,18.09
2023-03-24T19:32:54.136Z,18.15
2023-03-24T19:35:24.063Z,18.16
2023-03-24T19:37:52.369Z,18.24
2023-03-24T19:40:19.681Z,18.29
2023-03-24T19:42:47.011Z,18.10
2023-03-24T19:45:18.440Z,18.16
2023-03-24T19:47:48.650Z,18.17
2023-03-24T19:50:24.703Z,18.18
2023-03-24T19:52:52.753Z,18.10
2023-03-24T19:55:24.972Z,18.06
2023-03-24T19:58:00.963Z,18.09
2023-03-24T20:00:28.151Z,17.99
2023-03-24T20:03:13.000Z,18.07
2023-03-24T20:05:43.481Z,18.06
2023-03-24T20:08:31.607Z,18.01
2023-03-24T20:11:10.114Z,18.11
2023-03-24T20:13:39.924Z,18.16
2023-03-24T20:16:07.287Z,18.21
2023-03-24T20:18:43.588Z,18.09
2023-03-24T20:21:20.742Z,18.00
2023-03-24T20:23:53.729Z,18.06
2023-03-24T20:26:31.957Z,18.10
2023-03-24T20:28:58.858Z,17.97
2023-03-24T20:31:31.872Z,18.03
2023-03-24T20:34:17.327Z,18.02
2023-03-24T20:37:11.610Z,17.98
2023-03-24T20:39:48.425Z,17.88
2023-03-24T20:42:27.954Z,18.07
2023-03-24T20:45:04.105Z,18.00
2023-03-24T20:47:36.763Z,17.84
2023-03-24T20:50:06.278Z,17.88
2023-03-24T20:52:33.323Z,17.86
2023-03-24T20:55:02.712Z,17.88
2023-03-24T20:57:40.360Z,18.00
2023-03-24T21:00:16.626Z,17.96
2023-03-24T21:02:50.348Z,18.01
2023-03-24T21:05:19.440Z,17.97
2023-03-24T21:07:51.886Z,18.02
2023-03-24T21:10:26.765Z,17.89
2023-03-24T21:12:54.849Z,17.89
2023-03-24T21:15:23.503Z,17.76
2023-03-24T21:17:54.122Z,17.64
2023-03-24T21:20:31.068Z,17.70
2023-03-24T21:23:04.790Z,17.56
2023-03-24T21:25:36.747Z,17.47
2023-03-24T21:28:04.673Z,17.49
2023-03-24T21:30:34.537Z,17.31
2023-03-24T21:33:02.703Z,17.48
2023-03-24T21:35:30.627Z,17.56
2023-03-24T21:38:06.882Z,17.51
2023-03-24T21:40:40.393Z,17.46
2023-03-24T21:46:04.491Z,17.69
2023-03-24T21:48:33.102Z,17.59
2023-03-24T21:51:03.600Z,17.47
2023-03-24T21:53:36.511Z,17.41
2023-03-24T21:56:10.473Z,17.38
2023-03-24T21:58:38.302Z,17.45
2023-03-24T22:01:29.482Z,17.43
2023-03-24T22:04:11.872Z,17.40
2023-03-24T22:06:40.079Z,17.34
2023-03-24T22:09:08.457Z,17.37
2023-03-24T22:14:33.927Z,17.33
2023-03-24T22:17:00.993Z,17.36
2023-03-24T22:19:28.342Z,17.41
2023-03-24T22:22:00.283Z,17.56
2023-03-24T22:24:29.548Z,17.39
2023-03-24T22:26:59.124Z,17.37
2023-03-24T22:29:36.444Z,17.46
2023-03-24T22:32:18.290Z,17.36
2023-03-24T22:34:56.701Z,17.31
2023-03-24T22:37:32.782Z,17.49
2023-03-24T22:39:59.622Z,17.49
2023-03-24T22:42:37.574Z,17.46
2023-03-24T22:45:08.422Z,17.37
2023-03-24T22:47:35.231Z,17.35
2023-03-24T22:50:04.984Z,17.36
2023-03-24T22:52:32.811Z,17.11
2023-03-24T22:55:04.043Z,17.03
2023-03-24T22:57:39.965Z,17.02
2023-03-24T23:00:12.312Z,17.14
2023-03-24T23:02:45.668Z,17.04
2023-03-24T23:05:32.713Z,17.02
2023-03-24T23:08:20.945Z,16.95
2023-03-24T23:10:58.376Z,16.89
2023-03-24T23:13:27.549Z,16.78
2023-03-24T23:15:54.794Z,16.86
2023-03-24T23:18:37.251Z,16.81
2023-03-24T23:24:12.716Z,16.90
2023-03-24T23:26:42.927Z,16.66
2023-03-24T23:29:20.831Z,16.47
2023-03-24T23:32:17.409Z,16.67
2023-03-24T23:35:06.070Z,16.76
2023-03-24T23:37:39.788Z,16.67
2023-03-24T23:40:13.568Z,16.72
2023-03-24T23:42:42.577Z,16.70
2023-03-24T23:45:11.337Z,16.56
2023-03-24T23:47:39.052Z,16.58
2023-03-24T23:50:08.111Z,16.58
2023-03-24T23:53:16.841Z,16.38
2023-03-24T23:55:57.286Z,16.40
2023-03-24T23:58:35.359Z,16.48
